Bristol, Tennessee
Current Conditions -  °F | °C
As of 8:35 PM on Wednesday 22 Oct 2014 (Local Time) from KVJI Reporting Station
Overcast Overcast  
Wind Chill: 43°   Ceiling: 2900
Heat Index: 46°   Visibility: 10mi
Dew Point: 42°   Wind: 7mph
Humidity: 84%   Direction: 360°N
Pressure: 30.2"   Gusts: NA
Location:  36.59°N, 82.22°W
Report Text: KVJI 230035Z AUTO 36006KT 10SM BKN029 OVC034 08/06 A3020 RMK AO2 T00800055
Loading
Personal Weather Stations






























Interactive Weather Map
Tropical Storm Tracking
New forecast layout! Learn more

10-Day Weather Forecast

Advertisements
Track Severe Weather on mobile